sensor_id;sensor_type;location;lat;lon;timestamp;P1;durP1;ratioP1;P2;durP2;ratioP2
84144;SDS011;74264;48.988;12.040;2023-12-20T00:00:04;9.30;;;6.95;;
84144;SDS011;74264;48.988;12.040;2023-12-20T00:02:32;7.78;;;6.78;;
84144;SDS011;74264;48.988;12.040;2023-12-20T00:04:57;8.77;;;6.57;;
84144;SDS011;74264;48.988;12.040;2023-12-20T00:07:23;8.98;;;6.40;;
84144;SDS011;74264;48.988;12.040;2023-12-20T00:09:49;9.63;;;6.15;;
84144;SDS011;74264;48.988;12.040;2023-12-20T00:12:14;18.60;;;6.82;;
84144;SDS011;74264;48.988;12.040;2023-12-20T00:14:40;9.05;;;7.10;;
84144;SDS011;74264;48.988;12.040;2023-12-20T00:17:05;7.93;;;6.68;;
84144;SDS011;74264;48.988;12.040;2023-12-20T00:19:31;12.57;;;6.80;;
84144;SDS011;74264;48.988;12.040;2023-12-20T00:21:57;8.65;;;6.35;;
84144;SDS011;74264;48.988;12.040;2023-12-20T00:24:22;7.13;;;5.78;;
84144;SDS011;74264;48.988;12.040;2023-12-20T00:26:48;8.65;;;6.10;;
84144;SDS011;74264;48.988;12.040;2023-12-20T00:29:13;6.10;;;5.38;;
84144;SDS011;74264;48.988;12.040;2023-12-20T00:31:39;7.15;;;5.78;;
84144;SDS011;74264;48.988;12.040;2023-12-20T00:34:04;7.22;;;5.72;;
84144;SDS011;74264;48.988;12.040;2023-12-20T00:36:30;11.20;;;6.50;;
84144;SDS011;74264;48.988;12.040;2023-12-20T00:38:55;7.70;;;6.32;;
84144;SDS011;74264;48.988;12.040;2023-12-20T00:41:22;10.77;;;6.53;;
84144;SDS011;74264;48.988;12.040;2023-12-20T00:43:47;12.48;;;6.30;;
84144;SDS011;74264;48.988;12.040;2023-12-20T00:46:13;9.23;;;6.30;;
84144;SDS011;74264;48.988;12.040;2023-12-20T00:48:39;7.00;;;5.40;;
84144;SDS011;74264;48.988;12.040;2023-12-20T00:51:07;7.80;;;6.00;;
84144;SDS011;74264;48.988;12.040;2023-12-20T00:53:33;6.40;;;5.70;;
84144;SDS011;74264;48.988;12.040;2023-12-20T00:55:58;8.13;;;6.15;;
84144;SDS011;74264;48.988;12.040;2023-12-20T00:58:24;9.93;;;5.55;;
84144;SDS011;74264;48.988;12.040;2023-12-20T01:00:50;8.02;;;5.47;;
84144;SDS011;74264;48.988;12.040;2023-12-20T01:03:15;8.35;;;5.22;;
84144;SDS011;74264;48.988;12.040;2023-12-20T01:05:41;6.20;;;4.85;;
84144;SDS011;74264;48.988;12.040;2023-12-20T01:08:06;6.65;;;5.70;;
84144;SDS011;74264;48.988;12.040;2023-12-20T01:10:32;7.88;;;5.72;;
84144;SDS011;74264;48.988;12.040;2023-12-20T01:12:58;6.63;;;5.70;;
84144;SDS011;74264;48.988;12.040;2023-12-20T01:15:23;6.80;;;5.60;;
84144;SDS011;74264;48.988;12.040;2023-12-20T01:17:49;6.82;;;5.57;;
84144;SDS011;74264;48.988;12.040;2023-12-20T01:20:15;8.57;;;6.38;;
84144;SDS011;74264;48.988;12.040;2023-12-20T01:22:40;7.18;;;5.78;;
84144;SDS011;74264;48.988;12.040;2023-12-20T01:25:08;6.85;;;4.97;;
84144;SDS011;74264;48.988;12.040;2023-12-20T01:27:33;6.80;;;6.10;;
84144;SDS011;74264;48.988;12.040;2023-12-20T01:29:59;6.93;;;6.22;;
84144;SDS011;74264;48.988;12.040;2023-12-20T01:32:24;8.98;;;6.07;;
84144;SDS011;74264;48.988;12.040;2023-12-20T01:34:50;7.78;;;6.43;;
84144;SDS011;74264;48.988;12.040;2023-12-20T01:37:16;14.32;;;7.50;;
84144;SDS011;74264;48.988;12.040;2023-12-20T01:39:41;8.07;;;6.95;;
84144;SDS011;74264;48.988;12.040;2023-12-20T01:42:07;8.32;;;6.90;;
84144;SDS011;74264;48.988;12.040;2023-12-20T01:44:32;9.23;;;6.97;;
84144;SDS011;74264;48.988;12.040;2023-12-20T01:46:58;10.73;;;7.25;;
84144;SDS011;74264;48.988;12.040;2023-12-20T01:49:23;9.27;;;7.15;;
84144;SDS011;74264;48.988;12.040;2023-12-20T01:51:50;9.05;;;6.25;;
84144;SDS011;74264;48.988;12.040;2023-12-20T01:54:16;9.45;;;7.45;;
84144;SDS011;74264;48.988;12.040;2023-12-20T01:56:42;10.32;;;7.80;;
84144;SDS011;74264;48.988;12.040;2023-12-20T01:59:08;8.95;;;6.63;;
84144;SDS011;74264;48.988;12.040;2023-12-20T02:01:35;8.13;;;6.75;;
84144;SDS011;74264;48.988;12.040;2023-12-20T02:04:00;10.00;;;7.63;;
84144;SDS011;74264;48.988;12.040;2023-12-20T02:06:30;11.38;;;7.03;;
84144;SDS011;74264;48.988;12.040;2023-12-20T02:08:57;9.90;;;7.60;;
84144;SDS011;74264;48.988;12.040;2023-12-20T02:11:23;7.85;;;6.82;;
84144;SDS011;74264;48.988;12.040;2023-12-20T02:13:50;16.27;;;7.30;;
84144;SDS011;74264;48.988;12.040;2023-12-20T02:16:16;11.48;;;7.47;;
84144;SDS011;74264;48.988;12.040;2023-12-20T02:18:42;9.93;;;7.88;;
84144;SDS011;74264;48.988;12.040;2023-12-20T02:21:09;15.15;;;7.80;;
84144;SDS011;74264;48.988;12.040;2023-12-20T02:23:35;9.90;;;6.93;;
84144;SDS011;74264;48.988;12.040;2023-12-20T02:26:01;7.60;;;6.60;;
84144;SDS011;74264;48.988;12.040;2023-12-20T02:28:26;9.18;;;7.25;;
84144;SDS011;74264;48.988;12.040;2023-12-20T02:30:52;8.32;;;6.43;;
84144;SDS011;74264;48.988;12.040;2023-12-20T02:33:18;7.70;;;6.07;;
84144;SDS011;74264;48.988;12.040;2023-12-20T02:35:43;9.18;;;6.45;;
84144;SDS011;74264;48.988;12.040;2023-12-20T02:38:09;6.00;;;5.32;;
84144;SDS011;74264;48.988;12.040;2023-12-20T02:40:34;7.68;;;6.15;;
84144;SDS011;74264;48.988;12.040;2023-12-20T02:43:00;7.43;;;6.38;;
84144;SDS011;74264;48.988;12.040;2023-12-20T02:45:26;8.70;;;6.38;;
84144;SDS011;74264;48.988;12.040;2023-12-20T02:47:52;9.65;;;6.13;;
84144;SDS011;74264;48.988;12.040;2023-12-20T02:50:18;10.98;;;6.22;;
84144;SDS011;74264;48.988;12.040;2023-12-20T02:52:46;6.97;;;5.95;;
84144;SDS011;74264;48.988;12.040;2023-12-20T02:55:12;6.90;;;6.10;;
84144;SDS011;74264;48.988;12.040;2023-12-20T02:57:37;7.40;;;5.38;;
84144;SDS011;74264;48.988;12.040;2023-12-20T03:00:07;6.53;;;5.88;;
84144;SDS011;74264;48.988;12.040;2023-12-20T03:02:34;5.68;;;4.90;;
84144;SDS011;74264;48.988;12.040;2023-12-20T03:05:00;9.32;;;4.45;;
84144;SDS011;74264;48.988;12.040;2023-12-20T03:07:26;5.38;;;4.22;;
84144;SDS011;74264;48.988;12.040;2023-12-20T03:09:52;6.18;;;4.88;;
84144;SDS011;74264;48.988;12.040;2023-12-20T03:12:17;3.85;;;3.55;;
84144;SDS011;74264;48.988;12.040;2023-12-20T03:14:43;6.30;;;4.07;;
84144;SDS011;74264;48.988;12.040;2023-12-20T03:17:09;5.15;;;4.20;;
84144;SDS011;74264;48.988;12.040;2023-12-20T03:19:35;11.57;;;4.32;;
84144;SDS011;74264;48.988;12.040;2023-12-20T03:22:01;5.78;;;3.97;;
84144;SDS011;74264;48.988;12.040;2023-12-20T03:24:27;4.40;;;3.88;;
84144;SDS011;74264;48.988;12.040;2023-12-20T03:26:52;3.90;;;3.60;;
84144;SDS011;74264;48.988;12.040;2023-12-20T03:29:18;4.47;;;3.72;;
84144;SDS011;74264;48.988;12.040;2023-12-20T03:31:44;6.43;;;3.80;;
84144;SDS011;74264;48.988;12.040;2023-12-20T03:34:11;5.50;;;4.00;;
84144;SDS011;74264;48.988;12.040;2023-12-20T03:36:37;4.15;;;3.75;;
84144;SDS011;74264;48.988;12.040;2023-12-20T03:39:02;3.60;;;3.30;;
84144;SDS011;74264;48.988;12.040;2023-12-20T03:41:28;3.60;;;3.30;;
84144;SDS011;74264;48.988;12.040;2023-12-20T03:43:54;3.78;;;3.47;;
84144;SDS011;74264;48.988;12.040;2023-12-20T03:46:19;3.88;;;3.53;;
84144;SDS011;74264;48.988;12.040;2023-12-20T03:48:45;3.67;;;3.38;;
84144;SDS011;74264;48.988;12.040;2023-12-20T03:51:10;4.03;;;3.17;;
84144;SDS011;74264;48.988;12.040;2023-12-20T03:53:36;3.53;;;3.22;;
84144;SDS011;74264;48.988;12.040;2023-12-20T03:56:02;5.63;;;3.70;;
84144;SDS011;74264;48.988;12.040;2023-12-20T03:58:27;3.25;;;2.97;;
84144;SDS011;74264;48.988;12.040;2023-12-20T04:00:53;4.10;;;3.70;;
84144;SDS011;74264;48.988;12.040;2023-12-20T04:03:18;3.80;;;3.50;;
84144;SDS011;74264;48.988;12.040;2023-12-20T04:05:44;4.20;;;3.00;;
84144;SDS011;74264;48.988;12.040;2023-12-20T04:08:11;3.22;;;2.88;;
84144;SDS011;74264;48.988;12.040;2023-12-20T04:10:37;6.30;;;3.38;;
84144;SDS011;74264;48.988;12.040;2023-12-20T04:13:03;5.45;;;3.28;;
84144;SDS011;74264;48.988;12.040;2023-12-20T04:15:29;3.50;;;3.20;;
84144;SDS011;74264;48.988;12.040;2023-12-20T04:17:54;7.25;;;3.20;;
84144;SDS011;74264;48.988;12.040;2023-12-20T04:20:20;3.78;;;3.33;;
84144;SDS011;74264;48.988;12.040;2023-12-20T04:22:45;3.53;;;3.22;;
84144;SDS011;74264;48.988;12.040;2023-12-20T04:25:11;4.53;;;3.30;;
84144;SDS011;74264;48.988;12.040;2023-12-20T04:27:36;4.13;;;2.53;;
84144;SDS011;74264;48.988;12.040;2023-12-20T04:30:02;3.03;;;2.75;;
84144;SDS011;74264;48.988;12.040;2023-12-20T04:32:30;3.53;;;3.20;;
84144;SDS011;74264;48.988;12.040;2023-12-20T04:34:56;3.67;;;3.38;;
84144;SDS011;74264;48.988;12.040;2023-12-20T04:37:22;3.10;;;2.85;;
84144;SDS011;74264;48.988;12.040;2023-12-20T04:39:48;3.67;;;3.17;;
84144;SDS011;74264;48.988;12.040;2023-12-20T04:42:13;3.15;;;2.95;;
84144;SDS011;74264;48.988;12.040;2023-12-20T04:44:39;7.68;;;2.55;;
84144;SDS011;74264;48.988;12.040;2023-12-20T04:47:04;3.17;;;3.00;;
84144;SDS011;74264;48.988;12.040;2023-12-20T04:49:30;3.00;;;2.70;;
84144;SDS011;74264;48.988;12.040;2023-12-20T04:51:55;3.05;;;2.85;;
84144;SDS011;74264;48.988;12.040;2023-12-20T04:54:21;2.97;;;2.70;;
84144;SDS011;74264;48.988;12.040;2023-12-20T04:56:47;4.35;;;2.65;;
84144;SDS011;74264;48.988;12.040;2023-12-20T04:59:13;5.28;;;2.70;;
84144;SDS011;74264;48.988;12.040;2023-12-20T05:01:38;2.80;;;2.60;;
84144;SDS011;74264;48.988;12.040;2023-12-20T05:04:04;4.63;;;3.40;;
84144;SDS011;74264;48.988;12.040;2023-12-20T05:06:30;3.33;;;3.03;;
84144;SDS011;74264;48.988;12.040;2023-12-20T05:08:55;3.10;;;2.80;;
84144;SDS011;74264;48.988;12.040;2023-12-20T05:11:21;3.42;;;3.10;;
84144;SDS011;74264;48.988;12.040;2023-12-20T05:13:47;2.92;;;2.72;;
84144;SDS011;74264;48.988;12.040;2023-12-20T05:16:13;2.90;;;2.70;;
84144;SDS011;74264;48.988;12.040;2023-12-20T05:18:39;3.15;;;2.92;;
84144;SDS011;74264;48.988;12.040;2023-12-20T05:21:05;6.20;;;3.30;;
84144;SDS011;74264;48.988;12.040;2023-12-20T05:23:31;3.75;;;2.97;;
84144;SDS011;74264;48.988;12.040;2023-12-20T05:25:57;4.38;;;3.22;;
84144;SDS011;74264;48.988;12.040;2023-12-20T05:28:24;3.15;;;2.95;;
84144;SDS011;74264;48.988;12.040;2023-12-20T05:30:50;3.50;;;3.20;;
84144;SDS011;74264;48.988;12.040;2023-12-20T05:33:15;3.53;;;2.65;;
84144;SDS011;74264;48.988;12.040;2023-12-20T05:35:41;2.17;;;1.98;;
84144;SDS011;74264;48.988;12.040;2023-12-20T05:38:06;2.85;;;2.53;;
84144;SDS011;74264;48.988;12.040;2023-12-20T05:40:32;2.88;;;2.67;;
84144;SDS011;74264;48.988;12.040;2023-12-20T05:42:57;3.67;;;2.90;;
84144;SDS011;74264;48.988;12.040;2023-12-20T05:45:23;2.92;;;2.72;;
84144;SDS011;74264;48.988;12.040;2023-12-20T05:47:48;3.05;;;2.85;;
84144;SDS011;74264;48.988;12.040;2023-12-20T05:50:14;3.03;;;2.83;;
84144;SDS011;74264;48.988;12.040;2023-12-20T05:52:40;5.35;;;3.20;;
84144;SDS011;74264;48.988;12.040;2023-12-20T05:55:06;3.72;;;3.42;;
84144;SDS011;74264;48.988;12.040;2023-12-20T05:57:32;4.20;;;3.20;;
84144;SDS011;74264;48.988;12.040;2023-12-20T05:59:57;5.82;;;3.17;;
84144;SDS011;74264;48.988;12.040;2023-12-20T06:02:23;4.00;;;2.90;;
84144;SDS011;74264;48.988;12.040;2023-12-20T06:04:49;3.17;;;2.72;;
84144;SDS011;74264;48.988;12.040;2023-12-20T06:07:15;3.15;;;2.95;;
84144;SDS011;74264;48.988;12.040;2023-12-20T06:09:42;3.45;;;3.03;;
84144;SDS011;74264;48.988;12.040;2023-12-20T06:12:08;3.20;;;3.00;;
84144;SDS011;74264;48.988;12.040;2023-12-20T06:14:34;3.92;;;3.08;;
84144;SDS011;74264;48.988;12.040;2023-12-20T06:17:00;3.40;;;3.10;;
84144;SDS011;74264;48.988;12.040;2023-12-20T06:19:26;3.85;;;3.45;;
84144;SDS011;74264;48.988;12.040;2023-12-20T06:21:52;3.53;;;3.22;;
84144;SDS011;74264;48.988;12.040;2023-12-20T06:24:18;5.57;;;3.30;;
84144;SDS011;74264;48.988;12.040;2023-12-20T06:26:43;2.80;;;2.60;;
84144;SDS011;74264;48.988;12.040;2023-12-20T06:29:09;3.47;;;2.03;;
84144;SDS011;74264;48.988;12.040;2023-12-20T06:31:35;1.55;;;1.45;;
84144;SDS011;74264;48.988;12.040;2023-12-20T06:34:00;1.30;;;1.30;;
84144;SDS011;74264;48.988;12.040;2023-12-20T06:36:26;1.52;;;1.42;;
84144;SDS011;74264;48.988;12.040;2023-12-20T06:38:52;1.15;;;1.05;;
84144;SDS011;74264;48.988;12.040;2023-12-20T06:41:18;1.25;;;1.20;;
84144;SDS011;74264;48.988;12.040;2023-12-20T06:43:44;1.40;;;1.30;;
84144;SDS011;74264;48.988;12.040;2023-12-20T06:46:09;1.30;;;1.30;;
84144;SDS011;74264;48.988;12.040;2023-12-20T06:48:35;1.10;;;1.10;;
84144;SDS011;74264;48.988;12.040;2023-12-20T06:51:01;0.73;;;0.73;;
84144;SDS011;74264;48.988;12.040;2023-12-20T06:53:29;1.33;;;1.23;;
84144;SDS011;74264;48.988;12.040;2023-12-20T06:55:55;1.80;;;1.40;;
84144;SDS011;74264;48.988;12.040;2023-12-20T06:58:24;1.80;;;1.70;;
84144;SDS011;74264;48.988;12.040;2023-12-20T07:00:50;1.15;;;1.15;;
84144;SDS011;74264;48.988;12.040;2023-12-20T07:03:16;0.75;;;0.75;;
84144;SDS011;74264;48.988;12.040;2023-12-20T07:05:43;26.10;;;10.75;;
84144;SDS011;74264;48.988;12.040;2023-12-20T07:08:09;2.35;;;1.67;;
84144;SDS011;74264;48.988;12.040;2023-12-20T07:10:36;3.65;;;2.08;;
84144;SDS011;74264;48.988;12.040;2023-12-20T07:13:02;1.35;;;1.25;;
84144;SDS011;74264;48.988;12.040;2023-12-20T07:15:28;3.53;;;2.80;;
84144;SDS011;74264;48.988;12.040;2023-12-20T07:17:54;2.17;;;0.70;;
84144;SDS011;74264;48.988;12.040;2023-12-20T07:20:20;1.63;;;1.52;;
84144;SDS011;74264;48.988;12.040;2023-12-20T07:22:46;0.75;;;0.75;;
84144;SDS011;74264;48.988;12.040;2023-12-20T07:25:11;1.70;;;1.33;;
84144;SDS011;74264;48.988;12.040;2023-12-20T07:27:37;5.70;;;3.50;;
84144;SDS011;74264;48.988;12.040;2023-12-20T07:30:02;23.55;;;8.48;;
84144;SDS011;74264;48.988;12.040;2023-12-20T07:32:28;0.93;;;0.75;;
84144;SDS011;74264;48.988;12.040;2023-12-20T07:34:54;3.63;;;1.60;;
84144;SDS011;74264;48.988;12.040;2023-12-20T07:37:19;0.88;;;0.88;;
84144;SDS011;74264;48.988;12.040;2023-12-20T07:39:46;0.98;;;0.98;;
84144;SDS011;74264;48.988;12.040;2023-12-20T07:42:11;4.30;;;3.22;;
84144;SDS011;74264;48.988;12.040;2023-12-20T07:44:37;3.08;;;2.42;;
84144;SDS011;74264;48.988;12.040;2023-12-20T07:47:02;2.08;;;1.90;;
84144;SDS011;74264;48.988;12.040;2023-12-20T07:49:28;1.67;;;1.58;;
84144;SDS011;74264;48.988;12.040;2023-12-20T07:51:55;0.40;;;0.40;;
84144;SDS011;74264;48.988;12.040;2023-12-20T07:54:20;0.35;;;0.35;;
84144;SDS011;74264;48.988;12.040;2023-12-20T07:56:46;0.63;;;0.60;;
84144;SDS011;74264;48.988;12.040;2023-12-20T07:59:12;0.47;;;0.47;;
84144;SDS011;74264;48.988;12.040;2023-12-20T08:01:38;0.75;;;0.75;;
84144;SDS011;74264;48.988;12.040;2023-12-20T08:04:03;0.30;;;0.30;;
84144;SDS011;74264;48.988;12.040;2023-12-20T08:06:29;0.50;;;0.30;;
84144;SDS011;74264;48.988;12.040;2023-12-20T08:08:55;0.32;;;0.32;;
84144;SDS011;74264;48.988;12.040;2023-12-20T08:11:20;0.35;;;0.35;;
84144;SDS011;74264;48.988;12.040;2023-12-20T08:13:46;0.70;;;0.40;;
84144;SDS011;74264;48.988;12.040;2023-12-20T08:16:12;0.40;;;0.40;;
84144;SDS011;74264;48.988;12.040;2023-12-20T08:18:39;0.75;;;0.57;;
84144;SDS011;74264;48.988;12.040;2023-12-20T08:21:04;0.73;;;0.40;;
84144;SDS011;74264;48.988;12.040;2023-12-20T08:23:33;0.35;;;0.35;;
84144;SDS011;74264;48.988;12.040;2023-12-20T08:25:58;0.35;;;0.35;;
84144;SDS011;74264;48.988;12.040;2023-12-20T08:28:29;0.65;;;0.52;;
84144;SDS011;74264;48.988;12.040;2023-12-20T08:30:56;0.73;;;0.30;;
84144;SDS011;74264;48.988;12.040;2023-12-20T08:33:22;0.40;;;0.40;;
84144;SDS011;74264;48.988;12.040;2023-12-20T08:35:47;0.20;;;0.20;;
84144;SDS011;74264;48.988;12.040;2023-12-20T08:38:13;0.25;;;0.25;;
84144;SDS011;74264;48.988;12.040;2023-12-20T08:40:39;0.45;;;0.45;;
84144;SDS011;74264;48.988;12.040;2023-12-20T08:43:05;0.30;;;0.30;;
84144;SDS011;74264;48.988;12.040;2023-12-20T08:45:30;0.50;;;0.50;;
84144;SDS011;74264;48.988;12.040;2023-12-20T08:47:56;1.58;;;1.02;;
84144;SDS011;74264;48.988;12.040;2023-12-20T08:50:21;0.52;;;0.52;;
84144;SDS011;74264;48.988;12.040;2023-12-20T08:52:47;0.43;;;0.40;;
84144;SDS011;74264;48.988;12.040;2023-12-20T08:55:13;0.30;;;0.30;;
84144;SDS011;74264;48.988;12.040;2023-12-20T08:57:40;0.55;;;0.30;;
84144;SDS011;74264;48.988;12.040;2023-12-20T09:00:06;0.85;;;0.28;;
84144;SDS011;74264;48.988;12.040;2023-12-20T09:02:33;0.20;;;0.20;;
84144;SDS011;74264;48.988;12.040;2023-12-20T09:05:01;7.88;;;0.32;;
84144;SDS011;74264;48.988;12.040;2023-12-20T09:07:27;0.30;;;0.30;;
84144;SDS011;74264;48.988;12.040;2023-12-20T09:09:55;0.50;;;0.50;;
84144;SDS011;74264;48.988;12.040;2023-12-20T09:12:21;1.38;;;0.70;;
84144;SDS011;74264;48.988;12.040;2023-12-20T09:14:47;1.00;;;0.40;;
84144;SDS011;74264;48.988;12.040;2023-12-20T09:17:14;1.00;;;0.60;;
84144;SDS011;74264;48.988;12.040;2023-12-20T09:19:41;0.77;;;0.40;;
84144;SDS011;74264;48.988;12.040;2023-12-20T09:22:09;0.40;;;0.40;;
84144;SDS011;74264;48.988;12.040;2023-12-20T09:24:34;0.32;;;0.32;;
84144;SDS011;74264;48.988;12.040;2023-12-20T09:27:00;0.50;;;0.50;;
84144;SDS011;74264;48.988;12.040;2023-12-20T09:29:26;0.40;;;0.40;;
84144;SDS011;74264;48.988;12.040;2023-12-20T09:31:51;0.60;;;0.60;;
84144;SDS011;74264;48.988;12.040;2023-12-20T09:34:17;0.85;;;0.80;;
84144;SDS011;74264;48.988;12.040;2023-12-20T09:36:42;0.50;;;0.50;;
84144;SDS011;74264;48.988;12.040;2023-12-20T09:39:15;0.75;;;0.75;;
84144;SDS011;74264;48.988;12.040;2023-12-20T09:41:46;1.42;;;0.85;;
84144;SDS011;74264;48.988;12.040;2023-12-20T09:44:22;0.50;;;0.50;;
84144;SDS011;74264;48.988;12.040;2023-12-20T09:46:49;1.40;;;1.25;;
84144;SDS011;74264;48.988;12.040;2023-12-20T09:49:15;1.02;;;1.02;;
84144;SDS011;74264;48.988;12.040;2023-12-20T09:51:43;2.92;;;2.60;;
84144;SDS011;74264;48.988;12.040;2023-12-20T09:54:12;5.55;;;4.55;;
84144;SDS011;74264;48.988;12.040;2023-12-20T09:56:45;2.95;;;2.17;;
84144;SDS011;74264;48.988;12.040;2023-12-20T09:59:11;4.43;;;3.72;;
84144;SDS011;74264;48.988;12.040;2023-12-20T10:01:38;3.30;;;2.92;;
84144;SDS011;74264;48.988;12.040;2023-12-20T10:04:06;1.65;;;1.55;;
84144;SDS011;74264;48.988;12.040;2023-12-20T10:06:40;2.03;;;1.85;;
84144;SDS011;74264;48.988;12.040;2023-12-20T10:09:07;1.10;;;1.00;;
84144;SDS011;74264;48.988;12.040;2023-12-20T10:11:40;0.98;;;0.90;;
84144;SDS011;74264;48.988;12.040;2023-12-20T10:14:06;3.90;;;1.10;;
84144;SDS011;74264;48.988;12.040;2023-12-20T10:16:32;1.20;;;0.90;;
84144;SDS011;74264;48.988;12.040;2023-12-20T10:18:59;0.80;;;0.80;;
84144;SDS011;74264;48.988;12.040;2023-12-20T10:21:26;2.60;;;2.17;;
84144;SDS011;74264;48.988;12.040;2023-12-20T10:23:53;0.70;;;0.63;;
84144;SDS011;74264;48.988;12.040;2023-12-20T10:26:20;1.70;;;1.38;;
84144;SDS011;74264;48.988;12.040;2023-12-20T10:28:49;1.13;;;0.90;;
84144;SDS011;74264;48.988;12.040;2023-12-20T10:31:36;0.80;;;0.80;;
84144;SDS011;74264;48.988;12.040;2023-12-20T10:34:04;0.75;;;0.75;;
84144;SDS011;74264;48.988;12.040;2023-12-20T10:36:30;0.55;;;0.52;;
84144;SDS011;74264;48.988;12.040;2023-12-20T10:38:57;0.82;;;0.80;;
84144;SDS011;74264;48.988;12.040;2023-12-20T10:41:30;1.13;;;1.02;;
84144;SDS011;74264;48.988;12.040;2023-12-20T10:43:58;2.63;;;2.17;;
84144;SDS011;74264;48.988;12.040;2023-12-20T10:46:28;0.95;;;0.95;;
84144;SDS011;74264;48.988;12.040;2023-12-20T10:48:55;0.90;;;0.90;;
84144;SDS011;74264;48.988;12.040;2023-12-20T10:51:22;0.90;;;0.90;;
84144;SDS011;74264;48.988;12.040;2023-12-20T10:53:50;1.23;;;1.10;;
84144;SDS011;74264;48.988;12.040;2023-12-20T10:56:17;1.25;;;1.15;;
84144;SDS011;74264;48.988;12.040;2023-12-20T10:58:45;1.90;;;1.00;;
84144;SDS011;74264;48.988;12.040;2023-12-20T11:01:15;0.90;;;0.90;;
84144;SDS011;74264;48.988;12.040;2023-12-20T11:03:48;0.60;;;0.60;;
84144;SDS011;74264;48.988;12.040;2023-12-20T11:08:53;0.75;;;0.75;;
84144;SDS011;74264;48.988;12.040;2023-12-20T11:14:45;1.67;;;0.90;;
84144;SDS011;74264;48.988;12.040;2023-12-20T11:17:11;2.97;;;2.45;;
84144;SDS011;74264;48.988;12.040;2023-12-20T11:20:12;6.13;;;2.80;;
84144;SDS011;74264;48.988;12.040;2023-12-20T11:22:32;0.93;;;0.90;;
84144;SDS011;74264;48.988;12.040;2023-12-20T11:25:05;1.42;;;1.33;;
84144;SDS011;74264;48.988;12.040;2023-12-20T11:27:33;3.90;;;1.33;;
84144;SDS011;74264;48.988;12.040;2023-12-20T11:29:59;1.50;;;1.02;;
84144;SDS011;74264;48.988;12.040;2023-12-20T11:34:58;1.20;;;1.10;;
84144;SDS011;74264;48.988;12.040;2023-12-20T11:37:29;3.10;;;1.05;;
84144;SDS011;74264;48.988;12.040;2023-12-20T11:40:00;1.60;;;1.10;;
84144;SDS011;74264;48.988;12.040;2023-12-20T11:42:50;1.80;;;1.20;;
84144;SDS011;74264;48.988;12.040;2023-12-20T11:45:17;7.63;;;1.05;;
84144;SDS011;74264;48.988;12.040;2023-12-20T11:47:47;2.05;;;1.00;;
84144;SDS011;74264;48.988;12.040;2023-12-20T11:50:18;7.22;;;1.45;;
84144;SDS011;74264;48.988;12.040;2023-12-20T11:52:44;6.63;;;1.35;;
84144;SDS011;74264;48.988;12.040;2023-12-20T11:55:10;4.85;;;0.90;;
84144;SDS011;74264;48.988;12.040;2023-12-20T11:57:36;4.80;;;1.30;;
84144;SDS011;74264;48.988;12.040;2023-12-20T12:00:02;2.92;;;0.95;;
84144;SDS011;74264;48.988;12.040;2023-12-20T12:02:37;1.48;;;1.05;;
84144;SDS011;74264;48.988;12.040;2023-12-20T12:05:03;3.42;;;1.20;;
84144;SDS011;74264;48.988;12.040;2023-12-20T12:07:33;6.40;;;0.88;;
84144;SDS011;74264;48.988;12.040;2023-12-20T12:10:00;4.20;;;1.10;;
84144;SDS011;74264;48.988;12.040;2023-12-20T12:12:26;3.28;;;0.82;;
84144;SDS011;74264;48.988;12.040;2023-12-20T12:14:52;4.00;;;0.90;;
84144;SDS011;74264;48.988;12.040;2023-12-20T12:17:18;3.45;;;0.73;;
84144;SDS011;74264;48.988;12.040;2023-12-20T12:19:44;2.30;;;0.80;;
84144;SDS011;74264;48.988;12.040;2023-12-20T12:22:11;3.40;;;1.52;;
84144;SDS011;74264;48.988;12.040;2023-12-20T12:24:39;4.25;;;1.30;;
84144;SDS011;74264;48.988;12.040;2023-12-20T12:27:06;5.95;;;0.85;;
84144;SDS011;74264;48.988;12.040;2023-12-20T12:29:32;1.58;;;0.70;;
84144;SDS011;74264;48.988;12.040;2023-12-20T12:31:59;3.03;;;1.10;;
84144;SDS011;74264;48.988;12.040;2023-12-20T12:34:27;3.78;;;1.00;;
84144;SDS011;74264;48.988;12.040;2023-12-20T12:36:53;2.33;;;0.93;;
84144;SDS011;74264;48.988;12.040;2023-12-20T12:39:19;3.90;;;1.42;;
84144;SDS011;74264;48.988;12.040;2023-12-20T12:41:45;5.88;;;1.00;;
84144;SDS011;74264;48.988;12.040;2023-12-20T12:44:11;2.40;;;0.90;;
84144;SDS011;74264;48.988;12.040;2023-12-20T12:46:36;2.95;;;1.42;;
84144;SDS011;74264;48.988;12.040;2023-12-20T12:49:02;2.50;;;0.90;;
84144;SDS011;74264;48.988;12.040;2023-12-20T12:51:28;2.88;;;1.10;;
84144;SDS011;74264;48.988;12.040;2023-12-20T12:53:53;6.18;;;1.10;;
84144;SDS011;74264;48.988;12.040;2023-12-20T12:56:19;3.40;;;1.10;;
84144;SDS011;74264;48.988;12.040;2023-12-20T12:58:45;2.22;;;1.20;;
84144;SDS011;74264;48.988;12.040;2023-12-20T13:01:10;3.63;;;1.35;;
84144;SDS011;74264;48.988;12.040;2023-12-20T13:03:36;2.60;;;1.00;;
84144;SDS011;74264;48.988;12.040;2023-12-20T13:06:01;4.20;;;1.30;;
84144;SDS011;74264;48.988;12.040;2023-12-20T13:08:28;2.78;;;1.13;;
84144;SDS011;74264;48.988;12.040;2023-12-20T13:10:54;2.38;;;1.00;;
84144;SDS011;74264;48.988;12.040;2023-12-20T13:13:20;4.80;;;1.10;;
84144;SDS011;74264;48.988;12.040;2023-12-20T13:15:46;2.08;;;1.27;;
84144;SDS011;74264;48.988;12.040;2023-12-20T13:18:16;5.93;;;1.33;;
84144;SDS011;74264;48.988;12.040;2023-12-20T13:20:43;2.17;;;1.10;;
84144;SDS011;74264;48.988;12.040;2023-12-20T13:23:09;1.20;;;1.10;;
84144;SDS011;74264;48.988;12.040;2023-12-20T13:25:35;2.88;;;1.52;;
84144;SDS011;74264;48.988;12.040;2023-12-20T13:28:01;2.45;;;1.77;;
84144;SDS011;74264;48.988;12.040;2023-12-20T13:30:27;3.25;;;1.48;;
84144;SDS011;74264;48.988;12.040;2023-12-20T13:32:53;4.55;;;0.90;;
84144;SDS011;74264;48.988;12.040;2023-12-20T13:35:19;4.50;;;1.63;;
84144;SDS011;74264;48.988;12.040;2023-12-20T13:37:46;3.33;;;1.20;;
84144;SDS011;74264;48.988;12.040;2023-12-20T13:40:11;6.18;;;1.45;;
84144;SDS011;74264;48.988;12.040;2023-12-20T13:42:40;4.43;;;1.25;;
84144;SDS011;74264;48.988;12.040;2023-12-20T13:45:06;4.20;;;1.30;;
84144;SDS011;74264;48.988;12.040;2023-12-20T13:47:33;4.13;;;2.22;;
84144;SDS011;74264;48.988;12.040;2023-12-20T13:49:58;9.88;;;2.70;;
84144;SDS011;74264;48.988;12.040;2023-12-20T13:52:24;3.05;;;1.50;;
84144;SDS011;74264;48.988;12.040;2023-12-20T13:54:50;5.35;;;2.80;;
84144;SDS011;74264;48.988;12.040;2023-12-20T13:57:15;6.18;;;1.70;;
84144;SDS011;74264;48.988;12.040;2023-12-20T13:59:41;3.40;;;1.20;;
84144;SDS011;74264;48.988;12.040;2023-12-20T14:02:06;4.00;;;1.42;;
84144;SDS011;74264;48.988;12.040;2023-12-20T14:04:32;5.13;;;1.73;;
84144;SDS011;74264;48.988;12.040;2023-12-20T14:06:58;4.65;;;1.30;;
84144;SDS011;74264;48.988;12.040;2023-12-20T14:09:23;2.50;;;1.33;;
84144;SDS011;74264;48.988;12.040;2023-12-20T14:11:49;4.00;;;1.50;;
84144;SDS011;74264;48.988;12.040;2023-12-20T14:14:15;4.45;;;1.10;;
84144;SDS011;74264;48.988;12.040;2023-12-20T14:16:41;3.28;;;1.13;;
84144;SDS011;74264;48.988;12.040;2023-12-20T14:19:10;1.65;;;1.17;;
84144;SDS011;74264;48.988;12.040;2023-12-20T14:21:36;2.55;;;1.40;;
84144;SDS011;74264;48.988;12.040;2023-12-20T14:24:02;4.57;;;2.08;;
84144;SDS011;74264;48.988;12.040;2023-12-20T14:26:29;6.05;;;1.70;;
84144;SDS011;74264;48.988;12.040;2023-12-20T14:28:55;4.38;;;1.30;;
84144;SDS011;74264;48.988;12.040;2023-12-20T14:31:21;1.30;;;1.10;;
84144;SDS011;74264;48.988;12.040;2023-12-20T14:33:49;4.68;;;1.30;;
84144;SDS011;74264;48.988;12.040;2023-12-20T14:36:16;3.13;;;1.45;;